Time;durP1;ratioP1;P1;durP2;ratioP2;P2;SDS_P1;SDS_P2;PMS_P1;PMS_P2;Temp;Humidity;BMP_temperature;BMP_pressure;BME280_temperature;BME280_humidity;BME280_pressure;Samples;Min_cycle;Max_cycle;Signal;HPM_P1;HPM_P2
2021/07/21 00:01:36;;;;;;;12.52;6.47;;;14.10;99.90;;;;;;4998252;28;20028;-63
2021/07/21 00:04:02;;;;;;;13.05;6.38;;;14.10;99.90;;;;;;5004365;28;20056;-60
2021/07/21 00:06:27;;;;;;;8.32;5.68;;;14.10;99.90;;;;;;4996049;28;20495;-63
2021/07/21 00:08:53;;;;;;;14.93;6.35;;;14.10;99.90;;;;;;4991550;28;20039;-62
2021/07/21 00:14:11;;;;;;;10.45;6.28;;;14.10;99.90;;;;;;4995189;28;20041;-61
2021/07/21 00:16:39;;;;;;;11.27;6.35;;;14.00;99.90;;;;;;4998430;28;20037;-60
2021/07/21 00:20:05;;;;;;;12.73;6.05;;;14.00;99.90;;;;;;4997331;28;20491;-61
2021/07/21 00:21:52;;;;;;;10.40;6.10;;;13.90;99.90;;;;;;4992035;28;20034;-62
2021/07/21 00:24:17;;;;;;;11.15;5.60;;;13.90;99.90;;;;;;4995021;28;20046;-62
2021/07/21 00:26:43;;;;;;;13.07;6.15;;;13.90;99.90;;;;;;4993285;28;20534;-62
2021/07/21 00:29:09;;;;;;;13.60;6.22;;;13.80;99.90;;;;;;4995018;28;20117;-60
2021/07/21 00:31:34;;;;;;;16.10;6.50;;;13.80;99.90;;;;;;4995330;28;20032;-60
2021/07/21 00:34:00;;;;;;;10.00;5.95;;;13.80;99.90;;;;;;4997485;28;20505;-61
2021/07/21 00:36:27;;;;;;;14.07;6.82;;;13.70;99.90;;;;;;4996313;28;20057;-62
2021/07/21 00:38:53;;;;;;;21.63;5.97;;;13.70;99.90;;;;;;4997473;28;20491;-60
2021/07/21 00:41:19;;;;;;;9.23;5.80;;;13.70;99.90;;;;;;4997879;28;20037;-61
2021/07/21 00:43:44;;;;;;;10.10;5.80;;;13.60;99.90;;;;;;5002287;28;20034;-60
2021/07/21 00:46:10;;;;;;;16.17;6.45;;;13.60;99.90;;;;;;4998329;28;20053;-61
2021/07/21 00:48:35;;;;;;;14.55;6.75;;;13.60;99.90;;;;;;4998601;28;20041;-62
2021/07/21 00:51:01;;;;;;;12.45;5.95;;;13.50;99.90;;;;;;4968976;28;20058;-61
2021/07/21 00:53:27;;;;;;;12.30;5.30;;;13.50;99.90;;;;;;5003138;28;20068;-61
2021/07/21 00:55:53;;;;;;;12.70;6.45;;;13.40;99.90;;;;;;4999506;28;20081;-61
2021/07/21 00:58:18;;;;;;;11.57;6.32;;;13.40;99.90;;;;;;4998588;28;20034;-61
2021/07/21 01:00:44;;;;;;;12.18;6.07;;;13.40;99.90;;;;;;4996700;28;20057;-62
2021/07/21 01:03:10;;;;;;;15.10;6.68;;;13.30;99.90;;;;;;4990056;28;20031;-62
2021/07/21 01:05:41;;;;;;;11.55;6.20;;;13.30;99.90;;;;;;4995337;28;20018;-62
2021/07/21 01:08:09;;;;;;;13.15;6.80;;;13.30;99.90;;;;;;4994158;28;20077;-60
2021/07/21 01:10:35;;;;;;;11.73;6.40;;;13.30;99.90;;;;;;4997189;28;20022;-61
2021/07/21 01:13:26;;;;;;;11.85;5.63;;;13.30;99.90;;;;;;4992765;28;20495;-61
2021/07/21 01:16:06;;;;;;;10.15;5.90;;;13.20;99.90;;;;;;4990891;28;20480;-61
2021/07/21 01:18:53;;;;;;;14.50;5.68;;;13.10;99.90;;;;;;4998632;28;20022;-61
2021/07/21 01:21:48;;;;;;;12.20;6.57;;;13.10;99.90;;;;;;4997878;28;20144;-61
2021/07/21 01:24:25;;;;;;;11.80;6.55;;;13.00;99.90;;;;;;5000914;28;20048;-62
2021/07/21 01:27:11;;;;;;;9.73;6.07;;;12.90;99.90;;;;;;5001572;28;20030;-61
2021/07/21 01:29:39;;;;;;;10.32;6.20;;;12.90;99.90;;;;;;4999974;28;20030;-61
2021/07/21 01:32:07;;;;;;;11.02;6.50;;;12.90;99.90;;;;;;4996786;28;20029;-62
2021/07/21 01:34:34;;;;;;;9.55;5.70;;;12.90;99.90;;;;;;4997306;28;20122;-61
2021/07/21 01:37:00;;;;;;;10.70;6.05;;;12.90;99.90;;;;;;4996013;28;20499;-62
2021/07/21 01:39:31;;;;;;;12.30;6.18;;;12.90;99.90;;;;;;4994320;28;20026;-62
2021/07/21 01:42:02;;;;;;;10.93;6.35;;;12.90;99.90;;;;;;5002338;28;20175;-62
2021/07/21 01:44:30;;;;;;;14.77;6.57;;;12.90;99.90;;;;;;4995477;28;20034;-61
2021/07/21 01:47:00;;;;;;;19.00;7.05;;;12.80;99.90;;;;;;5002073;28;20130;-62
2021/07/21 01:49:37;;;;;;;13.70;6.65;;;12.80;99.90;;;;;;4994254;28;20026;-62
2021/07/21 01:52:12;;;;;;;20.13;6.85;;;12.80;99.90;;;;;;4993856;28;20049;-60
2021/07/21 01:54:39;;;;;;;12.73;6.60;;;12.70;99.90;;;;;;4997399;28;20033;-62
2021/07/21 01:57:06;;;;;;;12.75;6.63;;;12.70;99.90;;;;;;5015185;28;20383;-62
2021/07/21 01:59:32;;;;;;;11.48;6.85;;;12.60;99.90;;;;;;5003220;28;20026;-62
2021/07/21 02:02:04;;;;;;;12.02;6.05;;;12.60;99.90;;;;;;4999026;28;20097;-62
2021/07/21 02:04:31;;;;;;;11.88;6.10;;;12.60;99.90;;;;;;4999888;28;20041;-61
2021/07/21 02:06:58;;;;;;;10.20;6.80;;;12.60;99.90;;;;;;4994748;28;20107;-61
2021/07/21 02:09:24;;;;;;;12.75;6.88;;;12.50;99.90;;;;;;4986957;28;20065;-62
2021/07/21 02:11:50;;;;;;;13.23;6.93;;;12.50;99.90;;;;;;4993720;28;20069;-62
2021/07/21 02:14:17;;;;;;;12.25;6.70;;;12.40;99.90;;;;;;4995226;28;20476;-60
2021/07/21 02:16:43;;;;;;;15.07;7.75;;;12.40;99.90;;;;;;4994914;28;20026;-59
2021/07/21 02:19:09;;;;;;;12.88;7.22;;;12.30;99.90;;;;;;4997786;28;20028;-61
2021/07/21 02:21:40;;;;;;;12.57;7.18;;;12.20;99.90;;;;;;4997011;28;20022;-61
2021/07/21 02:24:08;;;;;;;14.38;6.85;;;12.20;99.90;;;;;;5001241;28;20022;-62
2021/07/21 02:26:37;;;;;;;15.40;7.28;;;12.20;99.90;;;;;;4996136;28;20045;-61
2021/07/21 02:29:04;;;;;;;13.40;6.50;;;12.20;99.90;;;;;;5006294;28;20030;-61
2021/07/21 02:31:36;;;;;;;11.65;7.35;;;12.20;99.90;;;;;;4995455;28;20026;-61
2021/07/21 02:34:03;;;;;;;16.67;6.95;;;12.20;99.90;;;;;;5001306;28;20022;-61
2021/07/21 02:36:31;;;;;;;11.43;6.22;;;12.30;99.90;;;;;;4992377;28;20022;-61
2021/07/21 02:38:56;;;;;;;11.65;6.85;;;12.30;99.90;;;;;;4999036;28;20077;-62
2021/07/21 02:41:22;;;;;;;14.15;8.25;;;12.20;99.90;;;;;;4996213;28;20038;-60
2021/07/21 02:43:48;;;;;;;18.95;7.60;;;12.20;99.90;;;;;;4992474;28;20040;-61
2021/07/21 02:46:14;;;;;;;12.82;7.18;;;12.20;99.90;;;;;;4992462;28;20392;-59
2021/07/21 02:48:43;;;;;;;15.60;6.75;;;12.10;99.90;;;;;;4996660;28;20407;-61
2021/07/21 02:51:17;;;;;;;18.38;7.30;;;12.10;99.90;;;;;;5009994;28;20139;-61
2021/07/21 02:53:49;;;;;;;13.25;7.45;;;12.10;99.90;;;;;;4990411;28;20545;-60
2021/07/21 02:56:17;;;;;;;12.07;7.00;;;12.00;99.90;;;;;;4992294;28;20034;-61
2021/07/21 02:59:10;;;;;;;11.05;6.22;;;12.00;99.90;;;;;;4992611;28;20030;-60
2021/07/21 03:01:39;;;;;;;15.05;7.60;;;12.00;99.90;;;;;;4997117;28;20385;-60
2021/07/21 03:04:05;;;;;;;12.07;7.38;;;11.90;99.90;;;;;;5000626;28;20040;-61
2021/07/21 03:06:32;;;;;;;12.57;7.20;;;11.90;99.90;;;;;;5005719;28;20030;-62
2021/07/21 03:08:58;;;;;;;10.95;6.75;;;11.90;99.90;;;;;;5004957;28;20511;-61
2021/07/21 03:11:25;;;;;;;13.25;7.88;;;11.90;99.90;;;;;;4985427;28;20100;-61
2021/07/21 03:13:58;;;;;;;14.10;7.07;;;11.80;99.90;;;;;;5001419;28;20034;-59
2021/07/21 03:16:33;;;;;;;15.27;7.43;;;11.70;99.90;;;;;;5007366;28;20081;-61
2021/07/21 03:19:05;;;;;;;10.23;7.30;;;11.70;99.90;;;;;;5003124;28;20022;-61
2021/07/21 03:21:33;;;;;;;16.77;7.63;;;11.60;99.90;;;;;;5002641;28;20038;-61
2021/07/21 03:24:01;;;;;;;12.48;7.20;;;11.60;99.90;;;;;;4998285;28;20121;-61
2021/07/21 03:26:31;;;;;;;18.80;7.53;;;11.60;99.90;;;;;;5004537;28;20045;-62
2021/07/21 03:28:57;;;;;;;17.23;7.57;;;11.60;99.90;;;;;;5003435;28;20107;-61
2021/07/21 03:31:24;;;;;;;13.88;7.70;;;11.60;99.90;;;;;;5006038;28;20483;-61
2021/07/21 03:34:01;;;;;;;13.48;7.53;;;11.60;99.90;;;;;;5000396;28;20477;-61
2021/07/21 03:36:30;;;;;;;12.90;7.60;;;11.70;99.90;;;;;;5003090;28;20026;-61
2021/07/21 03:38:57;;;;;;;8.88;6.10;;;11.70;99.90;;;;;;4999521;28;20506;-61
2021/07/21 03:41:24;;;;;;;13.23;6.88;;;11.70;99.90;;;;;;5004087;28;20030;-61
2021/07/21 03:43:51;;;;;;;11.68;7.38;;;11.70;99.90;;;;;;5003327;28;20132;-61
2021/07/21 03:46:18;;;;;;;11.98;7.47;;;11.70;99.90;;;;;;5007299;28;20033;-59
2021/07/21 03:48:45;;;;;;;13.02;6.38;;;11.70;99.90;;;;;;5003624;28;20044;-63
2021/07/21 03:51:12;;;;;;;15.10;7.20;;;11.70;99.90;;;;;;5002750;28;20065;-61
2021/07/21 03:53:39;;;;;;;12.35;6.93;;;11.70;99.90;;;;;;5006856;28;20053;-62
2021/07/21 03:56:06;;;;;;;14.02;6.93;;;11.70;99.90;;;;;;5007487;28;20123;-62
2021/07/21 03:58:33;;;;;;;16.02;6.72;;;11.70;99.90;;;;;;4999981;28;20049;-61
2021/07/21 04:00:59;;;;;;;13.38;7.28;;;11.70;99.90;;;;;;5002303;28;20158;-61
2021/07/21 04:03:27;;;;;;;11.13;7.10;;;11.70;99.90;;;;;;4993532;28;20034;-61
2021/07/21 04:05:54;;;;;;;12.55;7.65;;;11.70;99.90;;;;;;5006892;28;20037;-62
2021/07/21 04:08:21;;;;;;;13.63;7.95;;;11.70;99.90;;;;;;5001291;28;20645;-62
2021/07/21 04:10:51;;;;;;;9.88;6.07;;;11.70;99.90;;;;;;4987658;28;20046;-62
2021/07/21 04:13:18;;;;;;;12.20;7.00;;;11.80;99.90;;;;;;5000773;28;20046;-61
2021/07/21 04:15:49;;;;;;;14.70;7.15;;;11.80;99.90;;;;;;5006783;28;20014;-62
2021/07/21 04:18:17;;;;;;;12.32;6.88;;;11.80;99.90;;;;;;5000460;28;20030;-62
2021/07/21 04:20:43;;;;;;;9.75;6.53;;;11.80;99.90;;;;;;5004727;28;20037;-62
2021/07/21 04:23:10;;;;;;;13.70;6.45;;;11.90;99.90;;;;;;5002427;28;20403;-61
2021/07/21 04:25:36;;;;;;;13.57;7.22;;;11.90;99.90;;;;;;4997241;28;20519;-60
2021/07/21 04:28:03;;;;;;;10.43;6.50;;;12.00;99.90;;;;;;5003537;28;20113;-60
2021/07/21 04:30:33;;;;;;;15.00;6.80;;;12.00;99.90;;;;;;4999012;28;20026;-62
2021/07/21 04:32:59;;;;;;;12.85;6.82;;;12.00;99.90;;;;;;5007393;28;20026;-61
2021/07/21 04:35:29;;;;;;;12.73;6.00;;;12.10;99.90;;;;;;5003819;28;20053;-62
2021/07/21 04:37:56;;;;;;;9.50;6.30;;;12.10;99.90;;;;;;5000667;28;20730;-60
2021/07/21 04:40:22;;;;;;;13.32;6.90;;;12.10;99.90;;;;;;5000868;28;20026;-62
2021/07/21 04:42:48;;;;;;;10.10;6.30;;;12.20;99.90;;;;;;5002416;28;20030;-61
2021/07/21 04:45:14;;;;;;;12.63;7.55;;;12.30;99.90;;;;;;5001544;28;20037;-62
2021/07/21 04:47:41;;;;;;;11.10;6.13;;;12.50;99.90;;;;;;5007027;28;20136;-62
2021/07/21 04:50:14;;;;;;;10.98;6.43;;;12.80;99.90;;;;;;4999749;28;20117;-60
2021/07/21 04:52:41;;;;;;;7.63;4.95;;;13.70;99.90;;;;;;5001651;28;20029;-62
2021/07/21 04:55:07;;;;;;;10.00;5.72;;;14.70;99.90;;;;;;5008020;28;20036;-61
2021/07/21 04:57:33;;;;;;;12.45;6.18;;;15.80;99.90;;;;;;5007282;28;20084;-62
2021/07/21 04:59:58;;;;;;;9.95;4.95;;;16.90;99.90;;;;;;5003331;28;20034;-60
2021/07/21 05:02:24;;;;;;;7.85;4.93;;;17.70;99.90;;;;;;5000985;28;20034;-62
2021/07/21 05:04:50;;;;;;;9.07;4.47;;;18.20;99.90;;;;;;5008726;28;20042;-61
2021/07/21 05:07:16;;;;;;;7.75;4.10;;;18.70;99.80;;;;;;4993240;28;20033;-63
2021/07/21 05:09:42;;;;;;;5.50;4.38;;;19.20;98.60;;;;;;5008933;28;20081;-63
2021/07/21 05:12:09;;;;;;;8.43;4.70;;;19.60;97.70;;;;;;4973550;28;20178;-63
2021/07/21 05:14:34;;;;;;;8.07;5.15;;;19.90;96.90;;;;;;4989863;28;20547;-63
2021/07/21 05:17:00;;;;;;;7.63;4.50;;;20.40;96.10;;;;;;4991167;28;20105;-63
2021/07/21 05:19:26;;;;;;;6.20;4.10;;;20.90;95.10;;;;;;4989669;28;20046;-62
2021/07/21 05:21:53;;;;;;;7.07;4.32;;;21.20;94.20;;;;;;4992906;28;20031;-62
2021/07/21 05:24:20;;;;;;;5.13;3.13;;;21.50;93.60;;;;;;4977522;28;20504;-62
2021/07/21 05:26:47;;;;;;;8.95;4.22;;;22.00;92.90;;;;;;4991287;28;20042;-62
2021/07/21 05:29:13;;;;;;;10.02;3.92;;;22.60;91.90;;;;;;4982842;28;20038;-63
2021/07/21 05:31:39;;;;;;;8.05;3.70;;;21.90;91.50;;;;;;4984739;28;20110;-62
2021/07/21 05:34:04;;;;;;;8.50;3.75;;;22.80;91.50;;;;;;4989165;28;20137;-63
2021/07/21 05:36:35;;;;;;;8.68;4.05;;;23.90;88.40;;;;;;4988665;28;20558;-63
2021/07/21 05:39:03;;;;;;;7.15;3.70;;;24.20;87.20;;;;;;4989437;28;20092;-61
2021/07/21 05:41:29;;;;;;;6.57;3.78;;;24.60;84.50;;;;;;4989280;28;20033;-63
2021/07/21 05:43:55;;;;;;;6.80;3.83;;;25.10;81.40;;;;;;4987973;28;20412;-63
2021/07/21 05:46:20;;;;;;;8.48;4.25;;;24.60;83.20;;;;;;4985502;28;20081;-63
2021/07/21 05:48:46;;;;;;;4.97;3.40;;;24.70;81.40;;;;;;4988437;28;20034;-63
2021/07/21 05:51:11;;;;;;;5.68;3.35;;;25.80;79.00;;;;;;4989074;28;20026;-63
2021/07/21 05:53:37;;;;;;;7.03;3.92;;;26.10;76.80;;;;;;4978726;28;20072;-61
2021/07/21 05:56:04;;;;;;;6.50;3.95;;;26.30;76.20;;;;;;4985664;28;20503;-62
2021/07/21 05:58:29;;;;;;;6.95;4.15;;;25.60;77.20;;;;;;4987106;28;20026;-64
2021/07/21 06:00:55;;;;;;;5.82;3.40;;;26.50;75.50;;;;;;4982860;28;20109;-63
2021/07/21 06:03:22;;;;;;;5.45;3.63;;;27.20;74.10;;;;;;4979922;28;20081;-61
2021/07/21 06:05:47;;;;;;;4.10;3.15;;;27.00;74.20;;;;;;4991910;28;20030;-61
2021/07/21 06:08:13;;;;;;;12.55;4.53;;;27.40;73.20;;;;;;4984854;28;20047;-60
2021/07/21 06:10:40;;;;;;;7.72;4.30;;;27.70;71.10;;;;;;4973376;28;20068;-61
2021/07/21 06:13:05;;;;;;;5.35;3.45;;;27.90;69.60;;;;;;5008274;28;20022;-61
2021/07/21 06:15:31;;;;;;;8.40;3.55;;;28.30;69.90;;;;;;5000692;28;20033;-61
2021/07/21 06:17:57;;;;;;;3.90;3.47;;;27.90;68.30;;;;;;5002561;28;20105;-61
2021/07/21 06:20:23;;;;;;;6.13;3.90;;;27.70;69.80;;;;;;4995391;28;20027;-61
2021/07/21 06:22:48;;;;;;;7.85;3.95;;;27.60;68.10;;;;;;5006558;28;20399;-61
2021/07/21 06:25:15;;;;;;;6.47;3.75;;;27.50;69.00;;;;;;5005079;28;20027;-62
2021/07/21 06:27:40;;;;;;;8.65;4.22;;;28.60;66.20;;;;;;5005782;28;20061;-61
2021/07/21 06:30:07;;;;;;;5.15;3.50;;;28.30;68.00;;;;;;5005866;28;20076;-61
2021/07/21 06:32:38;;;;;;;9.05;3.75;;;29.60;65.30;;;;;;4998267;28;20022;-63
2021/07/21 06:35:08;;;;;;;7.60;3.17;;;28.80;65.90;;;;;;5004005;28;20033;-63
2021/07/21 06:37:34;;;;;;;5.50;3.92;;;29.30;65.60;;;;;;5007177;28;20089;-62
2021/07/21 06:40:00;;;;;;;5.63;3.10;;;29.40;63.70;;;;;;5007268;28;20403;-62
2021/07/21 06:42:26;;;;;;;5.20;3.63;;;29.70;64.70;;;;;;5007856;28;20034;-62
2021/07/21 06:44:53;;;;;;;8.90;3.22;;;31.40;61.60;;;;;;5007801;28;20184;-62
2021/07/21 06:47:20;;;;;;;10.95;3.70;;;30.50;61.80;;;;;;5005338;28;20037;-63
2021/07/21 06:49:49;;;;;;;6.32;3.60;;;30.90;60.90;;;;;;5003545;28;20025;-62
2021/07/21 06:52:16;;;;;;;7.38;3.72;;;30.80;61.20;;;;;;5007994;28;20551;-61
2021/07/21 06:54:42;;;;;;;7.43;4.00;;;30.20;61.00;;;;;;5004993;28;20058;-63
2021/07/21 06:57:09;;;;;;;6.38;3.70;;;31.20;59.70;;;;;;5009143;28;20079;-62
2021/07/21 06:59:36;;;;;;;9.07;4.18;;;30.70;59.00;;;;;;5005426;28;20057;-62
2021/07/21 07:02:03;;;;;;;5.63;3.00;;;30.90;59.90;;;;;;5005602;28;20022;-62
2021/07/21 07:04:28;;;;;;;6.18;3.53;;;31.20;60.30;;;;;;5005797;28;20116;-62
2021/07/21 07:06:54;;;;;;;7.18;4.07;;;31.40;60.80;;;;;;5000805;28;20567;-62
2021/07/21 07:09:20;;;;;;;6.82;3.28;;;31.50;60.60;;;;;;5001962;28;20031;-62
2021/07/21 07:11:46;;;;;;;5.65;3.30;;;31.50;59.00;;;;;;4986262;28;20092;-62
2021/07/21 07:14:12;;;;;;;5.30;3.78;;;31.00;58.90;;;;;;4997256;28;20030;-62
2021/07/21 07:16:37;;;;;;;9.00;3.85;;;31.00;57.40;;;;;;5008131;28;20560;-63
2021/07/21 07:19:03;;;;;;;5.95;3.58;;;31.00;60.00;;;;;;5005657;28;20126;-62
2021/07/21 07:21:29;;;;;;;4.38;3.15;;;30.90;58.60;;;;;;5006914;28;20052;-63
2021/07/21 07:23:57;;;;;;;6.00;3.22;;;31.10;57.10;;;;;;4993264;28;20380;-63
2021/07/21 07:26:23;;;;;;;4.25;3.30;;;32.30;55.60;;;;;;5000795;28;20038;-62
2021/07/21 07:28:51;;;;;;;7.40;3.67;;;32.00;55.00;;;;;;5003431;28;20030;-62
2021/07/21 07:31:16;;;;;;;3.97;3.00;;;32.30;55.70;;;;;;4998291;28;20022;-63
2021/07/21 07:33:42;;;;;;;5.78;3.53;;;32.50;57.00;;;;;;4998591;28;20410;-62
2021/07/21 07:36:07;;;;;;;5.82;3.35;;;33.00;56.90;;;;;;5009998;28;20057;-63
2021/07/21 07:38:33;;;;;;;4.28;3.05;;;34.50;53.60;;;;;;5005547;28;20049;-62
2021/07/21 07:40:59;;;;;;;3.85;3.13;;;33.80;54.10;;;;;;5003464;28;20036;-62
2021/07/21 07:43:24;;;;;;;6.93;3.33;;;33.80;54.40;;;;;;5003047;28;20395;-63
2021/07/21 07:45:51;;;;;;;5.53;3.00;;;33.10;51.80;;;;;;5004285;28;20037;-63
2021/07/21 07:48:17;;;;;;;6.35;3.58;;;33.00;51.00;;;;;;4998386;28;20041;-63
2021/07/21 07:50:42;;;;;;;3.50;2.90;;;32.10;51.80;;;;;;5003747;28;20022;-62
2021/07/21 07:53:08;;;;;;;4.18;3.08;;;31.80;52.70;;;;;;5006518;28;20022;-62
2021/07/21 07:55:36;;;;;;;7.30;3.13;;;31.80;54.20;;;;;;5003777;28;20026;-63
2021/07/21 07:58:02;;;;;;;4.38;2.97;;;32.80;55.10;;;;;;5001334;28;20030;-62
2021/07/21 08:00:29;;;;;;;6.22;3.20;;;33.90;51.90;;;;;;5005864;28;20057;-62
2021/07/21 08:02:54;;;;;;;5.80;2.95;;;34.90;51.30;;;;;;5001519;28;20033;-62
2021/07/21 08:05:20;;;;;;;5.22;2.70;;;34.90;50.80;;;;;;5005773;28;20026;-63
2021/07/21 08:07:45;;;;;;;4.70;2.70;;;33.90;46.50;;;;;;5002870;28;20586;-62
2021/07/21 08:10:13;;;;;;;7.32;2.70;;;33.10;48.30;;;;;;5003372;28;20034;-63
2021/07/21 08:12:41;;;;;;;6.15;2.80;;;33.80;47.90;;;;;;4984404;28;20117;-62
2021/07/21 08:15:08;;;;;;;4.22;2.83;;;33.20;48.10;;;;;;5001421;28;20032;-62
2021/07/21 08:17:34;;;;;;;5.50;2.75;;;34.60;49.30;;;;;;4995878;28;20045;-63
2021/07/21 08:19:59;;;;;;;3.25;2.45;;;33.10;46.70;;;;;;5004759;28;20033;-63
2021/07/21 08:22:25;;;;;;;4.68;2.60;;;33.60;48.90;;;;;;4987888;28;20030;-63
2021/07/21 08:24:51;;;;;;;6.07;2.70;;;33.40;49.40;;;;;;4957898;28;20090;-64
2021/07/21 08:27:16;;;;;;;5.50;2.78;;;34.20;47.20;;;;;;5007255;28;20025;-63
2021/07/21 08:29:42;;;;;;;3.60;2.38;;;33.70;44.90;;;;;;5009515;28;20033;-62
2021/07/21 08:32:09;;;;;;;4.40;2.72;;;33.70;48.40;;;;;;4998814;28;20124;-63
2021/07/21 08:34:34;;;;;;;5.40;3.72;;;34.40;45.60;;;;;;5008261;28;20022;-63
2021/07/21 08:37:00;;;;;;;5.60;2.95;;;34.70;45.80;;;;;;5010219;28;21970;-63
2021/07/21 08:39:26;;;;;;;3.80;3.05;;;34.90;45.00;;;;;;4999554;28;20037;-62
2021/07/21 08:41:52;;;;;;;4.70;3.40;;;34.10;45.30;;;;;;5009093;28;20128;-62
2021/07/21 08:44:18;;;;;;;5.95;3.90;;;33.70;48.10;;;;;;5012091;28;20044;-63
2021/07/21 08:46:44;;;;;;;5.05;3.40;;;33.10;46.00;;;;;;5004285;28;20377;-62
2021/07/21 08:49:10;;;;;;;4.13;3.15;;;33.10;48.50;;;;;;5009466;28;20453;-63
2021/07/21 08:51:37;;;;;;;4.40;3.65;;;33.40;48.30;;;;;;5008710;28;20059;-62
2021/07/21 08:54:03;;;;;;;3.72;3.33;;;33.40;47.10;;;;;;5005654;28;20037;-63
2021/07/21 08:56:28;;;;;;;3.90;3.30;;;33.50;44.60;;;;;;5011300;28;20080;-63
2021/07/21 08:58:54;;;;;;;6.50;3.67;;;33.20;44.90;;;;;;5008611;28;20455;-63
2021/07/21 09:01:22;;;;;;;5.30;3.15;;;32.00;46.70;;;;;;5012715;28;20031;-63
2021/07/21 09:03:49;;;;;;;4.80;3.80;;;32.10;48.20;;;;;;5005059;28;20034;-62
2021/07/21 09:06:15;;;;;;;6.40;3.55;;;32.40;47.00;;;;;;5012076;28;20048;-63
2021/07/21 09:08:41;;;;;;;3.90;3.50;;;32.40;48.00;;;;;;5005040;28;20499;-62
2021/07/21 09:11:07;;;;;;;9.07;3.80;;;33.30;47.40;;;;;;5004523;28;20443;-62
2021/07/21 09:13:34;;;;;;;4.85;3.70;;;34.00;47.10;;;;;;5007382;28;20491;-62
2021/07/21 09:16:04;;;;;;;5.13;3.72;;;33.80;44.50;;;;;;5006053;28;20071;-62
2021/07/21 09:18:31;;;;;;;4.80;3.55;;;33.60;45.70;;;;;;5010621;28;20399;-62
2021/07/21 09:20:57;;;;;;;7.13;3.70;;;32.90;46.10;;;;;;5003905;28;20048;-62
2021/07/21 09:23:58;;;;;;;5.60;4.03;;;32.10;48.30;;;;;;5000268;28;20021;-63
2021/07/21 09:26:24;;;;;;;9.43;4.13;;;31.60;47.90;;;;;;5010836;28;20026;-63
2021/07/21 09:28:51;;;;;;;5.80;4.05;;;31.40;47.80;;;;;;5002561;28;20071;-62
2021/07/21 09:31:39;;;;;;;4.20;3.33;;;31.00;50.00;;;;;;5004822;28;20423;-62
2021/07/21 09:34:34;;;;;;;5.53;3.63;;;31.40;49.50;;;;;;5011455;28;20034;-63
2021/07/21 09:37:09;;;;;;;4.90;3.65;;;31.40;47.40;;;;;;5004674;28;20457;-63
2021/07/21 09:39:38;;;;;;;4.85;3.65;;;31.20;48.50;;;;;;5011250;28;20026;-62
2021/07/21 09:42:09;;;;;;;9.88;3.97;;;30.90;49.90;;;;;;5006700;28;20048;-62
2021/07/21 09:44:40;;;;;;;5.47;3.72;;;30.10;50.40;;;;;;5005801;28;20086;-62
2021/07/21 09:47:10;;;;;;;5.70;3.72;;;30.60;50.90;;;;;;5000141;28;20026;-62
2021/07/21 09:49:36;;;;;;;4.07;3.60;;;32.20;48.30;;;;;;4994242;28;20578;-62
2021/07/21 09:52:22;;;;;;;8.73;4.13;;;31.70;46.80;;;;;;4998616;28;20039;-63
2021/07/21 09:55:07;;;;;;;5.40;4.10;;;31.30;46.90;;;;;;4997444;28;20088;-62
2021/07/21 09:57:34;;;;;;;5.68;4.07;;;31.30;48.90;;;;;;4995140;28;20022;-63
2021/07/21 10:00:00;;;;;;;10.35;4.00;;;30.80;46.90;;;;;;5001499;28;20022;-62
2021/07/21 10:02:26;;;;;;;6.65;4.05;;;30.80;47.80;;;;;;5000866;28;20085;-62
2021/07/21 10:04:52;;;;;;;4.70;3.80;;;30.50;50.20;;;;;;5006764;28;20059;-63
2021/07/21 10:07:50;;;;;;;4.70;3.83;;;30.00;48.40;;;;;;5008790;28;20018;-62
2021/07/21 10:10:19;;;;;;;4.75;3.40;;;30.40;51.00;;;;;;5007835;28;20034;-62
2021/07/21 10:12:57;;;;;;;10.32;4.35;;;30.10;52.00;;;;;;5005365;28;20094;-61
2021/07/21 10:15:23;;;;;;;5.80;3.92;;;30.60;50.90;;;;;;5002187;28;20033;-62
2021/07/21 10:18:12;;;;;;;6.28;4.30;;;31.10;48.30;;;;;;5005317;28;20022;-62
2021/07/21 10:20:39;;;;;;;5.78;3.55;;;30.60;49.50;;;;;;5004370;28;21286;-62
2021/07/21 10:23:07;;;;;;;6.28;4.40;;;29.90;50.70;;;;;;5000961;28;20026;-63
2021/07/21 10:25:33;;;;;;;4.90;4.10;;;29.90;49.30;;;;;;4992230;28;20108;-61
2021/07/21 10:27:59;;;;;;;4.82;3.83;;;29.10;51.40;;;;;;5005937;28;20511;-62
2021/07/21 10:30:26;;;;;;;6.32;4.18;;;29.10;50.20;;;;;;5010554;28;20101;-62
2021/07/21 10:32:54;;;;;;;5.32;3.92;;;28.40;51.90;;;;;;5009833;28;20098;-62
2021/07/21 10:35:21;;;;;;;8.35;4.32;;;28.00;52.50;;;;;;5006137;28;20054;-62
2021/07/21 10:37:48;;;;;;;7.07;3.92;;;28.00;55.30;;;;;;5004199;28;20077;-62
2021/07/21 10:40:15;;;;;;;6.18;4.40;;;28.50;53.10;;;;;;5002338;28;20022;-62
2021/07/21 10:42:41;;;;;;;5.70;4.07;;;28.50;52.50;;;;;;4993963;28;20041;-63
2021/07/21 10:45:18;;;;;;;7.97;4.95;;;28.00;51.60;;;;;;5002936;28;20050;-63
2021/07/21 10:47:45;;;;;;;5.05;3.92;;;27.80;53.80;;;;;;4995990;28;20108;-63
2021/07/21 10:54:12;;;;;;;6.07;4.43;;;27.30;53.70;;;;;;4993182;28;20056;-63
2021/07/21 10:59:14;;;;;;;6.78;4.15;;;27.10;54.90;;;;;;5002086;28;20443;-64
2021/07/21 11:01:41;;;;;;;6.38;4.75;;;27.30;55.00;;;;;;5012911;28;20491;-60
2021/07/21 11:04:06;;;;;;;6.30;4.25;;;27.60;54.80;;;;;;5003968;28;20052;-61
2021/07/21 11:06:43;;;;;;;7.60;3.92;;;27.70;58.20;;;;;;5006302;28;20534;-61
2021/07/21 11:09:19;;;;;;;6.20;4.13;;;27.70;54.20;;;;;;5008084;28;20080;-63
2021/07/21 11:11:46;;;;;;;8.73;4.10;;;27.60;54.40;;;;;;5008034;28;20034;-63
2021/07/21 11:14:24;;;;;;;5.82;4.63;;;27.50;53.30;;;;;;5007232;28;20030;-62
2021/07/21 11:17:09;;;;;;;6.93;4.32;;;27.10;54.60;;;;;;5005524;28;20018;-64
2021/07/21 11:19:42;;;;;;;5.53;4.10;;;27.00;55.40;;;;;;4997209;28;20483;-61
2021/07/21 11:22:28;;;;;;;5.85;4.10;;;26.60;56.00;;;;;;5006850;28;20522;-63
2021/07/21 11:25:18;;;;;;;5.00;4.03;;;26.90;54.50;;;;;;5001786;28;20072;-63
2021/07/21 11:27:54;;;;;;;6.75;4.32;;;26.70;55.70;;;;;;5005744;28;20053;-63
2021/07/21 11:30:39;;;;;;;9.70;4.28;;;26.70;54.80;;;;;;5001847;28;20658;-62
2021/07/21 11:33:54;;;;;;;7.80;4.18;;;26.80;56.30;;;;;;5000869;28;20054;-63
2021/07/21 11:36:38;;;;;;;6.00;4.28;;;27.10;54.90;;;;;;5000889;28;20057;-63
2021/07/21 11:39:05;;;;;;;5.50;3.83;;;26.80;54.80;;;;;;4988275;28;20041;-63
2021/07/21 11:41:49;;;;;;;7.75;4.47;;;26.80;54.90;;;;;;4996864;28;20109;-63
2021/07/21 11:44:37;;;;;;;5.00;4.28;;;26.80;55.20;;;;;;4994686;28;20022;-62
2021/07/21 11:47:13;;;;;;;5.45;4.45;;;26.40;56.10;;;;;;4995601;28;20476;-62
2021/07/21 11:49:46;;;;;;;6.47;4.05;;;26.30;56.80;;;;;;4999424;28;20038;-63
2021/07/21 11:52:13;;;;;;;5.28;3.85;;;26.50;56.70;;;;;;4999388;28;20615;-63
2021/07/21 11:54:39;;;;;;;6.88;4.78;;;26.60;56.70;;;;;;4994798;28;20046;-63
2021/07/21 11:57:07;;;;;;;6.80;4.43;;;26.70;55.40;;;;;;4997099;28;20014;-61
2021/07/21 11:59:37;;;;;;;8.13;4.40;;;27.10;55.70;;;;;;4998055;28;20065;-62
2021/07/21 12:02:13;;;;;;;7.78;4.45;;;27.20;55.30;;;;;;4996575;28;20030;-60
2021/07/21 12:04:46;;;;;;;9.85;4.95;;;27.10;55.80;;;;;;4999260;28;20030;-64
2021/07/21 12:07:14;;;;;;;7.85;4.65;;;26.90;56.50;;;;;;4996991;28;20098;-63
2021/07/21 12:09:43;;;;;;;9.00;4.68;;;26.80;57.40;;;;;;5002579;28;20029;-64
2021/07/21 12:12:12;;;;;;;7.93;4.50;;;26.90;57.00;;;;;;5000736;28;20046;-63
2021/07/21 12:14:40;;;;;;;6.15;3.97;;;26.90;57.20;;;;;;5008229;28;20456;-63
2021/07/21 12:17:09;;;;;;;7.90;4.47;;;27.00;58.80;;;;;;5007941;28;20029;-64
2021/07/21 12:19:36;;;;;;;8.10;4.18;;;27.10;57.00;;;;;;5008004;28;20064;-64
2021/07/21 12:22:12;;;;;;;6.53;4.07;;;27.50;54.00;;;;;;5008568;28;20407;-64
2021/07/21 12:24:39;;;;;;;6.05;4.00;;;27.40;54.20;;;;;;5001793;28;20042;-62
2021/07/21 12:27:07;;;;;;;5.78;4.40;;;27.40;53.80;;;;;;5006522;28;20420;-63
2021/07/21 12:29:33;;;;;;;8.48;4.63;;;27.10;54.40;;;;;;5007864;28;20410;-63
2021/07/21 12:32:13;;;;;;;7.18;5.25;;;27.30;56.10;;;;;;5006185;28;20030;-61
2021/07/21 12:34:47;;;;;;;8.35;5.60;;;27.60;55.10;;;;;;5001299;28;20053;-62
2021/07/21 12:37:19;;;;;;;6.85;4.32;;;27.50;53.90;;;;;;5007720;28;20029;-63
2021/07/21 12:39:46;;;;;;;6.03;3.97;;;27.50;55.90;;;;;;5001513;28;20068;-63
2021/07/21 12:42:17;;;;;;;7.50;4.38;;;27.40;54.10;;;;;;4994516;28;20041;-62
2021/07/21 12:44:51;;;;;;;7.70;4.63;;;27.50;54.00;;;;;;5005991;28;20065;-62
2021/07/21 12:47:20;;;;;;;7.05;4.28;;;27.30;54.20;;;;;;5006368;28;20034;-61
2021/07/21 12:50:11;;;;;;;7.15;4.68;;;27.30;55.60;;;;;;4999347;28;20034;-61
2021/07/21 12:52:41;;;;;;;9.10;4.82;;;27.10;54.70;;;;;;5003094;28;20046;-61
2021/07/21 12:55:08;;;;;;;7.32;4.90;;;26.90;56.00;;;;;;5009229;28;20014;-61
2021/07/21 12:57:44;;;;;;;7.57;5.15;;;26.50;56.40;;;;;;5004568;28;20499;-62
2021/07/21 13:00:18;;;;;;;8.10;5.53;;;26.10;56.10;;;;;;5007674;28;20034;-62
2021/07/21 13:03:03;;;;;;;7.80;5.10;;;25.90;58.40;;;;;;5012422;28;20108;-60